キッズと大暴れーーーー!!!!

LUXURY FLIGHT

03-6423-7371

羽田本店:東京都大田区羽田5-11-1
営業時間:10:00~20:00
定休日:毎週 月曜日
セントレア店:愛知県常滑市セントレア1-1
営業時間:10:00~20:00 年中無休

lv

キッズと大暴れーーーー!!!!

STAFF BLOG

2019/09/27 キッズと大暴れーーーー!!!!

おはざっスーーーー!!!!

 

本日の羽田METARは…

RJTT 270130Z 08005KT 9999 FEW020 BKN/// 23/19 Q1027 NOSIG RMK 1CU020 A3033

 

いい感じで秋の空気です

 

 

 

さてさてさてさて、本日は2日間に渡って繰り広げられた

合計180分、キッズキャプテンT君とのガチ合宿(笑)のご紹介

 

 

img_3075

 

 

実は二度目の再会でしたが、今回はさらに飛行機好きがパワーアップ

MCP(モードコントロールパネル)の使い方なんて、前回サラッと伝えただけなのに

しっかり覚えててくれました

 

T君、ありがとうね

 

今回はさらにマニュアル操縦にもこだわり、計器の見方を奥深くまで伝えます

ビタビタ!!とまではいかないまでも、747の重いヨークを繊細にコントロールできるんだからすごい

 

私が黙ってても、オート/マニュアルを使い分けながら着陸してくれます。

着陸間際には、ギアダウンやフラップも指示してくれるコマンダー能力も兼ね備えています

 

しかも、言い方が優しいし可愛い

 

今もそうだと思うけど、

きっとこの先も、たくさんの大人の人に可愛がられるんだろうなぁぁぁ

 

そんな、T君の人たらしな様子を見てて少々ヤキモチが…笑

 

将来、きっといいパイロットになってくれると信じています

 

この度のご来店誠にありがとうございました。

遠方ではございますが、次回も心より楽しみに致しておりまーーーーす!!!!

 

「感謝」

 

 

 

 

 

TOP